ΕΜΥ, Εθνική Μετεωρολογική Υπηρεσία - Δελτία Καιρού, Προγνώσεις

ΑΕΡΟΝΑΥΤΙΛΙΑ

GREEK AIRPORTS CODES

LGTS 191450Z 25008KT 9999 FEW030 26/17 Q1011 NOSIG=

EUROPEAN AIRPORTS CODES

LFPO 191430Z 02004KT 330V080 9999 FEW025 BKN110 19/12 Q1012TEMPO 4000 BKN020TCU=